Time;durP1;ratioP1;P1;durP2;ratioP2;P2;SDS_P1;SDS_P2;PMS_P1;PMS_P2;Temp;Humidity;BMP_temperature;BMP_pressure;BME280_temperature;BME280_humidity;BME280_pressure;Samples;Min_cycle;Max_cycle;Signal;HPM_P1;HPM_P2
2022/11/20 00:00:02;;;;;;;6.53;3.60;;;;;;;6.65;100.00;95700.72;5058769;28;20215;-70
2022/11/20 00:02:28;;;;;;;9.53;3.90;;;;;;;6.66;100.00;95699.75;5059979;28;20201;-70
2022/11/20 00:04:55;;;;;;;7.83;3.57;;;;;;;6.59;100.00;95701.38;5061823;28;20209;-70
2022/11/20 00:07:22;;;;;;;5.40;3.20;;;;;;;6.64;100.00;95708.75;5057745;28;20200;-70
2022/11/20 00:09:49;;;;;;;6.97;3.70;;;;;;;6.54;100.00;95700.25;5060377;28;20588;-70
2022/11/20 00:12:15;;;;;;;6.13;3.53;;;;;;;6.58;100.00;95705.00;5059885;28;20201;-70
2022/11/20 00:14:42;;;;;;;7.17;3.87;;;;;;;6.55;100.00;95709.75;5059990;28;20227;-70
2022/11/20 00:17:08;;;;;;;8.20;3.70;;;;;;;6.33;100.00;95713.03;5060251;28;20197;-70
2022/11/20 00:19:35;;;;;;;6.43;3.50;;;;;;;6.47;100.00;95705.34;5060191;28;20224;-70
2022/11/20 00:22:01;;;;;;;8.60;3.47;;;;;;;6.40;100.00;95721.84;5060064;28;20227;-70
2022/11/20 00:24:29;;;;;;;8.90;4.10;;;;;;;6.56;100.00;95722.66;5059222;28;20196;-70
2022/11/20 00:26:56;;;;;;;7.07;3.60;;;;;;;6.41;100.00;95720.88;5067940;28;20200;-70
2022/11/20 00:29:22;;;;;;;9.53;3.80;;;;;;;6.52;100.00;95726.59;5059871;28;20232;-70
2022/11/20 00:31:49;;;;;;;8.80;4.23;;;;;;;6.46;100.00;95724.63;5059812;28;20207;-70
2022/11/20 00:34:15;;;;;;;7.03;3.90;;;;;;;6.47;100.00;95725.47;5058859;28;20696;-70
2022/11/20 00:36:42;;;;;;;8.47;3.83;;;;;;;6.37;100.00;95727.44;5068042;28;20207;-70
2022/11/20 00:39:08;;;;;;;8.60;4.20;;;;;;;6.38;100.00;95736.91;5059663;28;20216;-70
2022/11/20 00:41:36;;;;;;;6.10;3.80;;;;;;;6.29;100.00;95735.28;5059285;28;20201;-70
2022/11/20 00:44:03;;;;;;;7.87;3.77;;;;;;;6.34;100.00;95738.19;5060279;28;20211;-70
2022/11/20 00:46:29;;;;;;;6.43;3.90;;;;;;;6.37;100.00;95728.22;5078271;28;20199;-70
2022/11/20 00:48:56;;;;;;;7.43;4.03;;;;;;;6.33;100.00;95740.00;5058909;28;20239;-70
2022/11/20 00:51:24;;;;;;;7.23;3.43;;;;;;;6.39;100.00;95735.91;5072060;28;20242;-70
2022/11/20 00:53:51;;;;;;;6.53;3.43;;;;;;;6.45;100.00;95740.50;5071295;28;20909;-70
2022/11/20 00:56:19;;;;;;;5.70;3.10;;;;;;;6.32;100.00;95740.19;5066581;28;20596;-70
2022/11/20 00:58:48;;;;;;;5.97;3.60;;;;;;;6.29;100.00;95730.06;5059454;28;20217;-70
2022/11/20 01:01:17;;;;;;;7.40;3.33;;;;;;;6.27;100.00;95742.47;5058992;28;20216;-70
2022/11/20 01:03:45;;;;;;;5.27;3.07;;;;;;;6.19;100.00;95747.69;5058659;28;20204;-70
2022/11/20 01:06:14;;;;;;;9.07;3.53;;;;;;;6.25;100.00;95745.25;5064438;28;20196;-70
2022/11/20 01:08:40;;;;;;;5.43;2.90;;;;;;;6.20;100.00;95754.56;5078498;28;20231;-70
2022/11/20 01:11:09;;;;;;;6.20;3.37;;;;;;;6.19;100.00;95751.13;5067323;28;20201;-70
2022/11/20 01:13:40;;;;;;;7.97;3.70;;;;;;;6.12;100.00;95763.22;5058630;28;20200;-70
2022/11/20 01:16:11;;;;;;;6.07;3.37;;;;;;;6.10;100.00;95757.31;5067139;28;20224;-70
2022/11/20 01:18:39;;;;;;;7.43;3.83;;;;;;;6.18;100.00;95764.38;5058474;28;20216;-70
2022/11/20 01:21:08;;;;;;;8.03;3.50;;;;;;;6.09;100.00;95771.38;5066174;28;20291;-70
2022/11/20 01:23:37;;;;;;;6.47;3.20;;;;;;;6.14;100.00;95766.47;5058503;28;20223;-70
2022/11/20 01:26:06;;;;;;;5.53;3.10;;;;;;;6.07;100.00;95764.66;5059111;28;20227;-70
2022/11/20 01:28:33;;;;;;;9.07;3.43;;;;;;;5.86;100.00;95766.13;5058507;28;20604;-70
2022/11/20 01:31:00;;;;;;;8.43;3.57;;;;;;;5.88;100.00;95770.22;5059106;28;20204;-70
2022/11/20 01:33:28;;;;;;;5.73;3.30;;;;;;;5.85;100.00;95770.50;5057972;28;20568;-70
2022/11/20 01:36:05;;;;;;;6.00;3.30;;;;;;;5.99;100.00;95771.69;5058144;28;20231;-70
2022/11/20 01:38:31;;;;;;;7.40;3.37;;;;;;;5.75;100.00;95776.81;5058851;28;20711;-70
2022/11/20 01:40:58;;;;;;;6.73;3.40;;;;;;;5.77;100.00;95769.69;5058075;28;20201;-70
2022/11/20 01:43:24;;;;;;;6.63;3.17;;;;;;;5.66;100.00;95778.59;5061098;28;20709;-70
2022/11/20 01:46:00;;;;;;;7.70;3.60;;;;;;;5.72;100.00;95772.72;5060728;28;20305;-70
2022/11/20 01:48:34;;;;;;;5.43;2.87;;;;;;;5.63;100.00;95770.25;5058418;28;20255;-70
2022/11/20 01:51:03;;;;;;;8.50;3.67;;;;;;;5.63;100.00;95773.69;5057672;28;20678;-70
2022/11/20 01:53:36;;;;;;;9.10;3.40;;;;;;;5.68;100.00;95781.06;5056946;28;20747;-70
2022/11/20 01:56:08;;;;;;;6.43;3.37;;;;;;;5.58;100.00;95769.91;5057085;28;20228;-70
2022/11/20 01:58:39;;;;;;;5.80;3.13;;;;;;;5.56;100.00;95767.47;5056854;28;20981;-70
2022/11/20 02:01:06;;;;;;;8.63;3.23;;;;;;;5.44;100.00;95765.28;5057915;28;20204;-70
2022/11/20 02:03:34;;;;;;;7.13;3.00;;;;;;;5.45;100.00;95769.53;5056556;28;20481;-70
2022/11/20 02:06:08;;;;;;;6.37;3.10;;;;;;;5.55;100.00;95768.44;5053822;28;20668;-70
2022/11/20 02:08:36;;;;;;;11.30;3.63;;;;;;;5.42;100.00;95766.41;5062121;28;20228;-70
2022/11/20 02:11:02;;;;;;;5.67;3.10;;;;;;;5.42;100.00;95769.03;5057151;28;20220;-70
2022/11/20 02:13:43;;;;;;;5.30;2.73;;;;;;;5.32;100.00;95763.94;5056759;28;20197;-70
2022/11/20 02:16:13;;;;;;;5.77;3.40;;;;;;;5.39;100.00;95762.31;5056722;28;20208;-70
2022/11/20 02:18:42;;;;;;;6.43;3.43;;;;;;;5.39;100.00;95764.13;5057252;28;20220;-70
2022/11/20 02:21:18;;;;;;;8.50;3.70;;;;;;;5.42;100.00;95769.84;5057098;28;20192;-70
2022/11/20 02:24:10;;;;;;;5.00;2.63;;;;;;;5.37;100.00;95769.47;5056196;28;20204;-70
2022/11/20 02:26:43;;;;;;;8.00;3.20;;;;;;;5.25;100.00;95770.75;5057225;28;20270;-70
2022/11/20 02:29:10;;;;;;;5.93;3.30;;;;;;;5.08;100.00;95774.25;5056458;28;20220;-70
2022/11/20 02:31:39;;;;;;;5.03;2.97;;;;;;;5.26;100.00;95775.00;5057013;28;20322;-70
2022/11/20 02:34:05;;;;;;;5.73;3.07;;;;;;;5.24;100.00;95766.50;5064767;28;20207;-70
2022/11/20 02:36:35;;;;;;;6.60;2.77;;;;;;;5.33;100.00;95776.00;5075752;28;20214;-70
2022/11/20 02:39:02;;;;;;;6.30;3.03;;;;;;;5.32;100.00;95774.38;5069718;28;20243;-70
2022/11/20 02:41:34;;;;;;;6.07;3.27;;;;;;;5.34;100.00;95772.41;5070649;28;20211;-70
2022/11/20 02:44:01;;;;;;;5.53;2.87;;;;;;;5.33;100.00;95776.00;5056332;28;20211;-70
2022/11/20 02:46:28;;;;;;;9.33;2.93;;;;;;;5.44;100.00;95767.91;5057020;28;20193;-70
2022/11/20 02:48:54;;;;;;;5.30;2.60;;;;;;;5.47;100.00;95767.56;5056913;28;20228;-70
2022/11/20 02:51:21;;;;;;;5.27;2.73;;;;;;;5.45;100.00;95765.13;5056651;28;20538;-70
2022/11/20 02:53:47;;;;;;;6.27;3.07;;;;;;;5.43;100.00;95771.47;5055893;28;20210;-70
2022/11/20 02:56:14;;;;;;;5.80;3.20;;;;;;;5.41;100.00;95765.63;5056282;28;20239;-70
2022/11/20 02:58:42;;;;;;;8.77;3.10;;;;;;;5.46;100.00;95773.81;5056874;28;20734;-70
2022/11/20 03:01:08;;;;;;;7.40;2.67;;;;;;;5.44;100.00;95767.91;5056193;28;20211;-70
2022/11/20 03:03:35;;;;;;;5.93;3.00;;;;;;;5.42;100.00;95769.84;5051881;28;20211;-70
2022/11/20 03:06:01;;;;;;;7.53;3.17;;;;;;;5.53;100.00;95772.19;5052745;28;20200;-70
2022/11/20 03:08:28;;;;;;;5.83;2.50;;;;;;;5.47;100.00;95768.41;5055566;28;20226;-70
2022/11/20 03:10:54;;;;;;;5.40;2.83;;;;;;;5.42;100.00;95764.59;5056171;28;20777;-70
2022/11/20 03:13:21;;;;;;;6.73;3.00;;;;;;;5.45;100.00;95762.50;5058779;28;20381;-70
2022/11/20 03:15:49;;;;;;;5.93;3.13;;;;;;;5.49;100.00;95763.03;5074742;28;20227;-70
2022/11/20 03:18:15;;;;;;;6.20;3.20;;;;;;;5.36;100.00;95767.88;5063896;28;20228;-70
2022/11/20 03:20:41;;;;;;;6.40;3.07;;;;;;;5.28;100.00;95761.78;5056190;28;20463;-70
2022/11/20 03:23:08;;;;;;;5.73;2.77;;;;;;;5.25;100.00;95756.88;5055607;28;20207;-70
2022/11/20 03:25:35;;;;;;;5.70;3.43;;;;;;;5.16;100.00;95758.63;5060863;28;20192;-70
2022/11/20 03:28:01;;;;;;;3.07;2.10;;;;;;;5.07;100.00;95763.97;5055875;28;20227;-70
2022/11/20 03:30:28;;;;;;;5.20;2.83;;;;;;;5.14;100.00;95760.59;5056394;28;20203;-70
2022/11/20 03:32:56;;;;;;;4.33;2.53;;;;;;;5.06;100.00;95764.94;5055422;28;20200;-70
2022/11/20 03:35:22;;;;;;;6.43;2.97;;;;;;;5.01;100.00;95754.94;5056345;28;20228;-70
2022/11/20 03:37:49;;;;;;;6.73;3.33;;;;;;;4.89;100.00;95758.81;5055719;28;20532;-70
2022/11/20 03:40:15;;;;;;;7.40;3.00;;;;;;;4.93;100.00;95762.75;5060159;28;20682;-70
2022/11/20 03:42:48;;;;;;;3.60;1.93;;;;;;;4.85;100.00;95754.06;5062207;28;20196;-70
2022/11/20 03:45:15;;;;;;;4.50;2.80;;;;;;;4.79;100.00;95759.09;5055856;28;20568;-70
2022/11/20 03:47:41;;;;;;;6.40;2.63;;;;;;;4.77;100.00;95758.41;5056459;28;20227;-70
2022/11/20 03:50:12;;;;;;;5.30;2.43;;;;;;;4.87;100.00;95750.31;5060045;28;20208;-70
2022/11/20 03:52:38;;;;;;;4.30;2.60;;;;;;;4.85;100.00;95754.06;5055249;28;20204;-70
2022/11/20 03:55:05;;;;;;;6.20;2.90;;;;;;;4.82;100.00;95760.41;5055806;28;20224;-70
2022/11/20 03:57:32;;;;;;;8.33;3.10;;;;;;;4.92;100.00;95755.06;5055824;28;20410;-70
2022/11/20 03:59:58;;;;;;;4.70;2.70;;;;;;;4.84;100.00;95753.22;5055989;28;20230;-70
2022/11/20 04:02:25;;;;;;;4.07;1.63;;;;;;;4.86;100.00;95746.06;5055220;28;20654;-70
2022/11/20 04:04:51;;;;;;;5.90;3.20;;;;;;;4.96;100.00;95746.78;5056144;28;20688;-70
2022/11/20 04:07:19;;;;;;;6.67;3.00;;;;;;;4.97;100.00;95751.00;5052473;28;20279;-70
2022/11/20 04:09:46;;;;;;;3.90;2.07;;;;;;;4.92;100.00;95758.47;5061132;28;20956;-70
2022/11/20 04:12:12;;;;;;;7.40;2.93;;;;;;;5.00;100.00;95753.34;5066806;28;20211;-70
2022/11/20 04:14:39;;;;;;;6.03;3.10;;;;;;;4.94;100.00;95747.91;5060661;28;20201;-70
2022/11/20 04:17:05;;;;;;;6.20;3.00;;;;;;;4.97;100.00;95753.63;5055008;28;20377;-70
2022/11/20 04:19:32;;;;;;;6.03;3.10;;;;;;;4.97;100.00;95753.63;5057017;28;20267;-70
2022/11/20 04:21:58;;;;;;;5.57;3.40;;;;;;;5.00;100.00;95755.94;5059536;28;20530;-70
2022/11/20 04:24:27;;;;;;;6.23;2.97;;;;;;;5.14;100.00;95752.75;5058719;28;20214;-70
2022/11/20 04:26:53;;;;;;;9.00;2.67;;;;;;;5.03;100.00;95752.22;5059200;28;20501;-70
2022/11/20 04:29:20;;;;;;;4.47;2.57;;;;;;;4.99;100.00;95751.69;5059260;28;20406;-69
2022/11/20 04:31:46;;;;;;;4.43;2.40;;;;;;;5.01;100.00;95744.50;5059007;28;20582;-69
2022/11/20 04:34:13;;;;;;;6.10;3.27;;;;;;;4.90;100.00;95746.56;5058668;28;20227;-69
2022/11/20 04:36:39;;;;;;;5.10;2.70;;;;;;;4.86;100.00;95746.06;5059405;28;20756;-70
2022/11/20 04:39:07;;;;;;;6.77;3.27;;;;;;;4.99;100.00;95761.28;5058686;28;20228;-70
2022/11/20 04:41:36;;;;;;;3.47;1.37;;;;;;;4.99;100.00;95754.31;5059116;28;20215;-70
2022/11/20 04:44:05;;;;;;;4.23;1.53;;;;;;;4.96;100.00;95762.44;5058569;28;20275;-70
2022/11/20 04:46:33;;;;;;;11.70;3.43;;;;;;;4.94;100.00;95769.59;5059200;28;20562;-72
2022/11/20 04:49:00;;;;;;;5.67;2.73;;;;;;;4.97;100.00;95766.69;5058498;28;20427;-72
2022/11/20 04:51:26;;;;;;;4.87;2.87;;;;;;;4.94;100.00;95768.81;5058694;28;20204;-72
2022/11/20 04:53:53;;;;;;;6.53;2.93;;;;;;;4.89;100.00;95761.41;5065400;28;20205;-72
2022/11/20 04:56:19;;;;;;;2.67;1.70;;;;;;;4.84;100.00;95770.69;5058864;28;20274;-72
2022/11/20 04:58:47;;;;;;;8.17;3.37;;;;;;;4.90;100.00;95760.44;5058133;28;20228;-72
2022/11/20 05:01:15;;;;;;;6.10;2.93;;;;;;;4.73;100.00;95770.13;5058324;28;20242;-72
2022/11/20 05:03:43;;;;;;;7.43;3.50;;;;;;;4.74;100.00;95764.75;5065566;28;20203;-72
2022/11/20 05:06:11;;;;;;;5.67;2.30;;;;;;;4.69;100.00;95763.56;5055964;28;20207;-72
2022/11/20 05:08:37;;;;;;;6.70;3.20;;;;;;;4.60;100.00;95765.28;5065120;28;20219;-72
2022/11/20 05:11:06;;;;;;;9.47;3.57;;;;;;;4.61;100.00;95761.72;5059306;28;20215;-72
2022/11/20 05:13:32;;;;;;;5.10;3.10;;;;;;;4.59;100.00;95768.06;5063815;28;20203;-72
2022/11/20 05:16:04;;;;;;;6.00;3.10;;;;;;;4.66;100.00;95766.47;5058122;28;20227;-72
2022/11/20 05:18:31;;;;;;;6.47;3.07;;;;;;;4.61;100.00;95771.31;5057471;28;20879;-72
2022/11/20 05:20:57;;;;;;;10.67;4.17;;;;;;;4.63;100.00;95772.00;5058088;28;21008;-72
2022/11/20 05:23:24;;;;;;;7.53;4.00;;;;;;;4.59;100.00;95778.50;5057653;28;20219;-72
2022/11/20 05:25:53;;;;;;;7.47;3.10;;;;;;;4.57;100.00;95775.22;5058429;28;20200;-72
2022/11/20 05:28:19;;;;;;;7.43;4.03;;;;;;;4.51;100.00;95774.03;5057795;28;20227;-72
2022/11/20 05:30:46;;;;;;;9.83;3.87;;;;;;;4.61;100.00;95777.38;5056856;28;20212;-72
2022/11/20 05:33:13;;;;;;;9.60;4.13;;;;;;;4.66;100.00;95766.47;5057434;28;20212;-72
2022/11/20 05:35:40;;;;;;;7.87;3.77;;;;;;;4.45;100.00;95779.03;5058849;28;20225;-72
2022/11/20 05:38:07;;;;;;;12.43;3.60;;;;;;;4.47;100.00;95774.50;5057747;28;20224;-72
2022/11/20 05:40:33;;;;;;;11.77;4.73;;;;;;;4.48;100.00;95776.13;5057955;28;20208;-72
2022/11/20 05:43:00;;;;;;;7.23;3.83;;;;;;;4.48;100.00;95770.91;5057170;28;20299;-72
2022/11/20 05:45:27;;;;;;;10.73;4.80;;;;;;;4.57;100.00;95767.38;5058197;28;20367;-72
2022/11/20 05:47:54;;;;;;;10.33;4.80;;;;;;;4.62;100.00;95767.75;5059022;28;20618;-72
2022/11/20 05:50:21;;;;;;;9.30;4.43;;;;;;;4.63;100.00;95759.75;5057859;28;20447;-72
2022/11/20 05:52:48;;;;;;;14.53;5.13;;;;;;;4.51;100.00;95761.00;5056679;28;20208;-72
2022/11/20 05:55:14;;;;;;;10.83;4.73;;;;;;;4.34;100.00;95763.63;5057696;28;20200;-72
2022/11/20 05:57:41;;;;;;;12.27;4.83;;;;;;;4.51;100.00;95765.41;5057594;28;20228;-70
2022/11/20 06:00:09;;;;;;;9.77;5.13;;;;;;;4.63;100.00;95764.19;5057328;28;20200;-70
2022/11/20 06:02:36;;;;;;;10.70;5.43;;;;;;;4.63;100.00;95758.97;5056722;28;20377;-70
2022/11/20 06:05:03;;;;;;;13.50;5.43;;;;;;;4.62;100.00;95759.91;5055261;28;20561;-72
2022/11/20 06:07:31;;;;;;;9.73;4.30;;;;;;;4.59;100.00;95761.03;5057511;28;20212;-72
2022/11/20 06:09:57;;;;;;;10.40;5.13;;;;;;;4.66;100.00;95758.63;5057594;28;20347;-72
2022/11/20 06:12:24;;;;;;;9.53;5.30;;;;;;;4.71;100.00;95766.84;5063591;28;20200;-72
2022/11/20 06:14:50;;;;;;;13.13;5.93;;;;;;;4.75;100.00;95768.16;5057935;28;20212;-72
2022/11/20 06:17:17;;;;;;;8.60;3.90;;;;;;;4.65;100.00;95763.06;5057461;28;20247;-69
2022/11/20 06:19:43;;;;;;;10.47;5.23;;;;;;;4.66;100.00;95763.84;5057947;28;20200;-73
2022/11/20 06:22:10;;;;;;;8.30;4.07;;;;;;;4.73;100.00;95767.50;5057789;28;20200;-74
2022/11/20 06:24:38;;;;;;;11.40;5.27;;;;;;;4.85;100.00;95757.47;5057078;28;20216;-73
2022/11/20 06:27:04;;;;;;;10.83;4.67;;;;;;;4.78;100.00;95768.69;5057486;28;20200;-72
2022/11/20 06:29:30;;;;;;;12.07;5.53;;;;;;;4.80;100.00;95771.97;5065646;28;20231;-72
2022/11/20 06:31:57;;;;;;;8.77;4.83;;;;;;;4.87;100.00;95763.38;5065834;28;20219;-72
2022/11/20 06:34:23;;;;;;;13.60;5.57;;;;;;;4.95;100.00;95766.03;5056277;28;20204;-72
2022/11/20 06:36:50;;;;;;;13.17;5.20;;;;;;;4.98;100.00;95765.72;5057908;28;20228;-70
2022/11/20 06:39:16;;;;;;;9.53;5.13;;;;;;;4.92;100.00;95761.09;5057013;28;20228;-70
2022/11/20 06:41:44;;;;;;;13.47;6.03;;;;;;;5.01;100.00;95767.19;5056515;28;20211;-69
2022/11/20 06:44:11;;;;;;;29.10;8.80;;;;;;;4.97;100.00;95769.28;5057386;28;20200;-69
2022/11/20 06:46:37;;;;;;;12.90;5.30;;;;;;;4.97;100.00;95771.91;5058295;28;20200;-69
2022/11/20 06:49:04;;;;;;;12.80;5.70;;;;;;;5.10;100.00;95772.28;5058818;28;20266;-70
2022/11/20 06:51:30;;;;;;;12.53;5.33;;;;;;;5.08;100.00;95779.47;5057740;28;20659;-68
2022/11/20 06:53:57;;;;;;;9.57;4.23;;;;;;;4.99;100.00;95777.78;5058312;28;20842;-69
2022/11/20 06:56:23;;;;;;;13.03;5.17;;;;;;;5.16;100.00;95776.09;5062950;28;20220;-69
2022/11/20 06:58:51;;;;;;;10.73;5.60;;;;;;;5.21;100.00;95782.47;5057217;28;20604;-69
2022/11/20 07:01:18;;;;;;;11.03;4.57;;;;;;;5.18;100.00;95793.25;5057238;28;20212;-69
2022/11/20 07:03:45;;;;;;;8.80;4.47;;;;;;;5.22;100.00;95794.56;5056095;28;20250;-69
2022/11/20 07:06:11;;;;;;;12.43;4.97;;;;;;;5.33;100.00;95796.09;5054564;28;20203;-69
2022/11/20 07:08:38;;;;;;;9.47;4.63;;;;;;;5.36;100.00;95796.59;5056398;28;20224;-69
2022/11/20 07:11:06;;;;;;;11.00;5.30;;;;;;;5.46;100.00;95798.13;5064540;28;20222;-69
2022/11/20 07:13:33;;;;;;;9.03;3.67;;;;;;;5.29;100.00;95805.22;5056144;28;20653;-69
2022/11/20 07:16:02;;;;;;;9.13;4.57;;;;;;;5.41;100.00;95802.19;5059518;28;20231;-69
2022/11/20 07:18:29;;;;;;;7.87;3.40;;;;;;;5.38;100.00;95805.09;5063957;28;20211;-69
2022/11/20 07:20:55;;;;;;;9.10;4.03;;;;;;;5.49;100.00;95808.25;5066750;28;20195;-70
2022/11/20 07:23:22;;;;;;;9.13;4.40;;;;;;;5.49;100.00;95812.66;5064028;28;20211;-69
2022/11/20 07:25:48;;;;;;;7.87;4.23;;;;;;;5.38;100.00;95806.91;5066019;28;20196;-69
2022/11/20 07:28:15;;;;;;;12.53;5.70;;;;;;;5.53;100.00;95804.34;5066008;28;20235;-69
2022/11/20 07:30:41;;;;;;;9.77;4.10;;;;;;;5.62;100.00;95811.25;5065328;28;20211;-69
2022/11/20 07:33:09;;;;;;;5.97;3.30;;;;;;;5.65;100.00;95816.16;5064854;28;20243;-69
2022/11/20 07:35:36;;;;;;;13.13;4.77;;;;;;;5.54;100.00;95820.84;5063778;28;20211;-69
2022/11/20 07:38:02;;;;;;;6.27;2.93;;;;;;;5.60;100.00;95807.13;5067069;28;20227;-69
2022/11/20 07:40:29;;;;;;;25.93;8.70;;;;;;;5.63;100.00;95819.91;5055861;28;20205;-69
2022/11/20 07:42:56;;;;;;;8.53;4.03;;;;;;;5.75;100.00;95818.66;5055939;28;20604;-69
2022/11/20 07:45:24;;;;;;;9.03;3.63;;;;;;;5.70;100.00;95823.53;5062037;28;20228;-69
2022/11/20 07:47:52;;;;;;;7.97;3.63;;;;;;;5.67;100.00;95821.22;5065482;28;20306;-70
2022/11/20 07:50:21;;;;;;;8.60;4.33;;;;;;;5.78;100.00;95818.34;5056047;28;20676;-72
2022/11/20 07:52:47;;;;;;;8.10;4.17;;;;;;;5.63;100.00;95809.47;5055640;28;20216;-69
2022/11/20 07:55:14;;;;;;;5.80;3.20;;;;;;;5.75;100.00;95810.81;5068485;28;21322;-69
2022/11/20 07:57:40;;;;;;;6.80;3.20;;;;;;;5.80;100.00;95812.00;5060593;28;20228;-69
2022/11/20 08:00:09;;;;;;;2.83;1.90;;;;;;;5.82;100.00;95806.63;5061680;28;20204;-70
2022/11/20 08:02:38;;;;;;;6.70;3.03;;;;;;;5.84;100.00;95812.50;5063855;28;20660;-70
2022/11/20 08:05:05;;;;;;;4.37;2.33;;;;;;;5.90;100.00;95804.84;5060411;28;20204;-70
2022/11/20 08:07:37;;;;;;;6.20;3.40;;;;;;;5.93;100.00;95822.00;5060521;28;20305;-70
2022/11/20 08:10:04;;;;;;;6.53;3.20;;;;;;;6.02;100.00;95816.66;5060155;28;20197;-70
2022/11/20 08:15:15;;;;;;;6.00;2.83;;;;;;;5.89;100.00;95815.47;5067201;28;20570;-70
2022/11/20 08:17:41;;;;;;;1.90;1.50;;;;;;;5.97;100.00;95815.47;5061578;28;20228;-70
2022/11/20 08:20:09;;;;;;;6.80;3.13;;;;;;;6.00;100.00;95818.59;5060016;28;20216;-70
2022/11/20 08:22:37;;;;;;;8.60;3.77;;;;;;;5.95;100.00;95809.59;5061318;28;20231;-70
2022/11/20 08:25:04;;;;;;;6.83;2.80;;;;;;;5.92;100.00;95818.59;5060915;28;20208;-70
2022/11/20 08:27:32;;;;;;;7.47;3.23;;;;;;;6.04;100.00;95819.09;5059543;28;20208;-70
2022/11/20 08:29:59;;;;;;;3.77;2.23;;;;;;;5.90;100.00;95823.13;5059860;28;20295;-72
2022/11/20 08:32:25;;;;;;;4.10;2.53;;;;;;;5.92;100.00;95820.38;5059137;28;20204;-72
2022/11/20 08:34:52;;;;;;;8.10;3.13;;;;;;;5.97;100.00;95828.56;5059364;28;20205;-72
2022/11/20 08:37:18;;;;;;;4.03;2.30;;;;;;;6.02;100.00;95824.50;5060326;28;20232;-73
2022/11/20 08:39:46;;;;;;;7.40;3.60;;;;;;;6.09;100.00;95828.09;5068517;28;20201;-72
2022/11/20 08:42:13;;;;;;;8.87;4.27;;;;;;;6.03;100.00;95823.50;5062537;28;20607;-72
2022/11/20 08:44:39;;;;;;;9.40;3.77;;;;;;;6.05;100.00;95822.38;5064406;28;20209;-70
2022/11/20 08:47:06;;;;;;;6.60;3.63;;;;;;;6.07;100.00;95830.03;5063604;28;20212;-70
2022/11/20 08:49:32;;;;;;;5.07;2.13;;;;;;;6.05;100.00;95826.78;5060824;28;20216;-70
2022/11/20 08:51:59;;;;;;;4.83;2.20;;;;;;;6.14;100.00;95825.84;5059656;28;20208;-70
2022/11/20 08:54:25;;;;;;;6.83;3.50;;;;;;;6.15;100.00;95825.66;5059189;28;20707;-70
2022/11/20 08:56:53;;;;;;;5.93;3.13;;;;;;;6.15;100.00;95833.50;5058928;28;20239;-70
2022/11/20 08:59:19;;;;;;;6.30;2.87;;;;;;;6.09;100.00;95834.13;5059311;28;20217;-70
2022/11/20 09:01:46;;;;;;;3.77;2.50;;;;;;;6.13;100.00;95832.03;5059598;28;20204;-70
2022/11/20 09:04:14;;;;;;;8.00;3.37;;;;;;;6.10;100.00;95834.97;5058141;28;20209;-70
2022/11/20 09:06:40;;;;;;;5.93;2.43;;;;;;;6.05;100.00;95835.44;5057367;28;20212;-70
2022/11/20 09:09:07;;;;;;;5.03;2.77;;;;;;;6.18;100.00;95822.72;5060002;28;20220;-71
2022/11/20 09:11:33;;;;;;;3.60;2.07;;;;;;;6.04;100.00;95828.56;5059427;28;20204;-70
2022/11/20 09:14:02;;;;;;;6.27;3.43;;;;;;;6.26;100.00;95821.91;5065420;28;20223;-73
2022/11/20 09:16:29;;;;;;;2.93;1.47;;;;;;;6.10;100.00;95814.88;5059904;28;20224;-73
2022/11/20 09:18:55;;;;;;;6.97;3.70;;;;;;;6.17;100.00;95821.09;5069124;28;20247;-73
2022/11/20 09:21:22;;;;;;;7.67;2.77;;;;;;;6.23;100.00;95820.44;5058789;28;20200;-71
2022/11/20 09:23:49;;;;;;;5.70;2.60;;;;;;;6.31;100.00;95817.03;5066102;28;20676;-71
2022/11/20 09:26:15;;;;;;;10.23;3.93;;;;;;;6.44;100.00;95823.44;5059271;28;20200;-71
2022/11/20 09:28:42;;;;;;;10.23;3.50;;;;;;;6.65;100.00;95820.34;5058291;28;20727;-71
2022/11/20 09:31:20;;;;;;;6.33;3.23;;;;;;;7.13;100.00;95802.78;5058494;28;20204;-71
2022/11/20 09:33:47;;;;;;;6.50;3.73;;;;;;;7.02;100.00;95809.19;5057996;28;20204;-72
2022/11/20 09:36:13;;;;;;;8.53;2.67;;;;;;;6.99;100.00;95804.28;5058402;28;20668;-71
2022/11/20 09:38:39;;;;;;;4.97;2.60;;;;;;;6.70;100.00;95813.63;5058537;28;20219;-72
2022/11/20 09:41:08;;;;;;;4.57;2.50;;;;;;;6.82;100.00;95822.78;5062759;28;20209;-71
2022/11/20 09:43:47;;;;;;;5.20;2.50;;;;;;;6.76;100.00;95815.59;5055061;28;20203;-71
2022/11/20 09:46:21;;;;;;;3.27;2.23;;;;;;;6.72;100.00;95817.72;5063156;28;20230;-71
2022/11/20 09:49:04;;;;;;;2.67;1.77;;;;;;;6.61;100.00;95808.56;5058358;28;20239;-72
2022/11/20 09:51:40;;;;;;;5.47;2.60;;;;;;;6.58;100.00;95809.72;5058700;28;20204;-71
2022/11/20 09:54:16;;;;;;;4.93;2.30;;;;;;;6.55;100.00;95807.41;5057251;28;20837;-73
2022/11/20 09:56:50;;;;;;;2.67;2.03;;;;;;;6.78;100.00;95806.59;5058103;28;20746;-73
2022/11/20 09:59:30;;;;;;;3.37;1.90;;;;;;;6.68;100.00;95811.19;5058048;28;20595;-73
2022/11/20 10:02:01;;;;;;;6.27;2.10;;;;;;;6.76;100.00;95808.56;5065500;28;20691;-73
2022/11/20 10:04:32;;;;;;;2.93;1.90;;;;;;;6.70;100.00;95814.44;5057583;28;20201;-71
2022/11/20 10:07:05;;;;;;;4.20;2.33;;;;;;;6.84;100.00;95810.34;5068501;28;20207;-73
2022/11/20 10:09:36;;;;;;;3.37;1.97;;;;;;;6.81;100.00;95811.50;5064639;28;20219;-72
2022/11/20 10:12:13;;;;;;;5.77;3.23;;;;;;;6.93;100.00;95804.13;5066917;28;20197;-72
2022/11/20 10:14:53;;;;;;;4.87;2.70;;;;;;;7.04;100.00;95798.53;5064907;28;20204;-72
2022/11/20 10:17:33;;;;;;;7.80;1.60;;;;;;;7.00;100.00;95811.16;5056441;28;20697;-73
2022/11/20 10:20:18;;;;;;;3.77;2.30;;;;;;;7.00;100.00;95802.47;5065809;28;20203;-72
2022/11/20 10:22:58;;;;;;;2.03;1.40;;;;;;;6.92;100.00;95795.44;5057013;28;20203;-73
2022/11/20 10:25:34;;;;;;;4.00;2.47;;;;;;;6.86;100.00;95797.91;5056688;28;20569;-73
2022/11/20 10:28:18;;;;;;;8.57;2.23;;;;;;;7.02;100.00;95803.13;5057680;28;20231;-72
2022/11/20 10:30:49;;;;;;;8.33;2.57;;;;;;;7.11;100.00;95791.66;5058587;28;20676;-73
2022/11/20 10:33:22;;;;;;;2.27;1.60;;;;;;;7.03;100.00;95794.31;5066680;28;20200;-72
2022/11/20 10:35:55;;;;;;;2.93;1.30;;;;;;;7.10;100.00;95787.41;5060233;28;20216;-73
2022/11/20 10:38:26;;;;;;;5.17;1.80;;;;;;;7.28;100.00;95794.91;5061418;28;20228;-73
2022/11/20 10:41:24;;;;;;;6.00;2.67;;;;;;;7.39;100.00;95791.91;5066000;28;20208;-70
2022/11/20 10:43:45;;;;;;;2.90;1.93;;;;;;;7.34;100.00;95788.16;5054791;28;21048;-70
2022/11/20 10:46:16;;;;;;;4.27;2.50;;;;;;;7.41;100.00;95791.75;5065238;28;20200;-70
2022/11/20 10:48:46;;;;;;;4.50;2.47;;;;;;;7.56;100.00;95793.50;5061764;28;20216;-70
2022/11/20 10:51:19;;;;;;;2.10;1.30;;;;;;;7.48;100.00;95785.63;5056928;28;20250;-70
2022/11/20 10:54:04;;;;;;;4.40;2.13;;;;;;;7.58;100.00;95790.69;5056523;28;20221;-73
2022/11/20 10:56:39;;;;;;;1.73;1.20;;;;;;;7.49;100.00;95781.22;5057703;28;20212;-72
2022/11/20 10:59:33;;;;;;;0.80;0.77;;;;;;;7.51;100.00;95787.09;5056834;28;20255;-72
2022/11/20 11:02:00;;;;;;;1.57;1.27;;;;;;;7.46;100.00;95789.44;5057422;28;20205;-73
2022/11/20 11:04:37;;;;;;;4.67;1.60;;;;;;;7.54;100.00;95784.97;5059347;28;20209;-72
2022/11/20 11:07:11;;;;;;;1.33;0.90;;;;;;;7.49;100.00;95786.47;5057245;28;20204;-72
2022/11/20 11:09:42;;;;;;;1.70;1.27;;;;;;;7.51;100.00;95787.94;5056667;28;20224;-72
2022/11/20 11:12:09;;;;;;;4.50;2.07;;;;;;;7.51;100.00;95781.88;5056529;28;20205;-72
2022/11/20 11:14:44;;;;;;;3.27;1.67;;;;;;;7.70;100.00;95779.69;5056491;28;20207;-74
2022/11/20 11:17:22;;;;;;;3.53;1.70;;;;;;;7.57;100.00;95774.13;5059001;28;20223;-73
2022/11/20 11:19:59;;;;;;;2.03;1.40;;;;;;;7.35;100.00;95780.13;5056643;28;20204;-72
2022/11/20 11:22:26;;;;;;;1.67;1.00;;;;;;;7.26;100.00;95774.28;5056802;28;20216;-73
2022/11/20 11:24:53;;;;;;;2.27;1.43;;;;;;;7.30;100.00;95771.13;5064088;28;20208;-73
2022/11/20 11:27:20;;;;;;;1.63;1.13;;;;;;;7.32;100.00;95769.97;5057365;28;20200;-73
2022/11/20 11:29:47;;;;;;;3.77;1.63;;;;;;;7.35;100.00;95771.44;5062074;28;20219;-73
2022/11/20 11:32:16;;;;;;;1.90;1.37;;;;;;;7.37;100.00;95772.91;5065996;28;20290;-74
2022/11/20 11:34:42;;;;;;;5.07;1.73;;;;;;;7.45;100.00;95770.25;5060873;28;20212;-74
2022/11/20 11:37:18;;;;;;;4.60;2.33;;;;;;;7.35;100.00;95777.50;5060871;28;20224;-75
2022/11/20 11:39:47;;;;;;;5.00;2.90;;;;;;;7.36;100.00;95771.28;5064485;28;20652;-74